createdAt,value
2022-08-28T00:04:15.499Z,9.44
2022-08-28T00:09:19.195Z,10.43
2022-08-28T00:14:24.594Z,9.13
2022-08-28T00:19:28.906Z,8.59
2022-08-28T00:24:31.801Z,6.89
2022-08-28T00:29:36.428Z,6.16
2022-08-28T00:34:39.426Z,8.31
2022-08-28T00:39:42.326Z,8.02
2022-08-28T00:44:47.160Z,8.69
2022-08-28T00:49:53.425Z,8.34
2022-08-28T00:54:59.957Z,7.80
2022-08-28T01:00:11.702Z,8.25
2022-08-28T01:05:15.477Z,8.11
2022-08-28T01:10:22.206Z,4.66
2022-08-28T01:15:35.627Z,1.73
2022-08-28T01:20:44.393Z,0.43
2022-08-28T01:25:49.269Z,-1.63
2022-08-28T01:30:52.693Z,-2.60
2022-08-28T01:35:56.204Z,-1.58
2022-08-28T01:41:00.623Z,-0.75
2022-08-28T01:46:06.413Z,-0.94
2022-08-28T01:51:10.663Z,0.13
2022-08-28T01:56:17.070Z,2.20
2022-08-28T02:01:22.098Z,-3.15
2022-08-28T02:06:25.976Z,-0.24
2022-08-28T02:11:32.428Z,0.77
2022-08-28T02:16:35.473Z,-3.42
2022-08-28T02:21:38.638Z,-3.32
2022-08-28T02:26:44.749Z,-3.67
2022-08-28T02:31:48.037Z,-2.73
2022-08-28T02:36:51.066Z,0.55
2022-08-28T02:41:55.765Z,0.21
2022-08-28T02:46:58.897Z,1.51
2022-08-28T02:52:02.300Z,4.04
2022-08-28T02:57:08.606Z,3.28
2022-08-28T03:02:11.928Z,1.48
2022-08-28T03:07:16.982Z,0.10
2022-08-28T03:12:24.729Z,-0.07
2022-08-28T03:17:27.846Z,-1.45
2022-08-28T03:22:49.550Z,-1.03
2022-08-28T03:27:55.379Z,-0.80
2022-08-28T03:32:58.738Z,0.28
2022-08-28T03:38:02.269Z,1.59
2022-08-28T03:43:07.078Z,3.41
2022-08-28T03:48:10.199Z,5.31
2022-08-28T03:53:13.579Z,4.39
2022-08-28T03:58:18.816Z,5.12
2022-08-28T04:03:22.427Z,4.77
2022-08-28T04:08:25.785Z,4.02
2022-08-28T04:13:30.822Z,3.90
2022-08-28T04:18:34.746Z,4.13
2022-08-28T04:23:38.875Z,4.12
2022-08-28T04:28:44.139Z,3.19
2022-08-28T04:33:46.984Z,2.09
2022-08-28T04:38:51.029Z,2.60
2022-08-28T04:43:57.647Z,3.73
2022-08-28T04:49:01.165Z,3.48
2022-08-28T04:54:04.234Z,4.53
2022-08-28T04:59:10.197Z,5.05
2022-08-28T05:04:13.480Z,2.83
2022-08-28T05:09:18.852Z,4.60
2022-08-28T05:14:23.573Z,3.60
2022-08-28T05:19:28.302Z,2.26
2022-08-28T05:24:31.406Z,7.01
2022-08-28T05:29:35.799Z,3.37
2022-08-28T05:34:38.704Z,3.41
2022-08-28T05:39:41.674Z,1.35
2022-08-28T05:44:46.302Z,2.05
2022-08-28T05:49:49.255Z,1.49
2022-08-28T05:54:55.959Z,3.13
2022-08-28T06:00:00.918Z,2.13
2022-08-28T06:05:04.464Z,2.74
2022-08-28T06:10:10.489Z,2.36
2022-08-28T06:15:15.718Z,1.58
2022-08-28T06:20:19.532Z,2.23
2022-08-28T06:25:22.776Z,-3.17
2022-08-28T06:30:27.416Z,-2.40
2022-08-28T06:35:34.590Z,-5.08
2022-08-28T06:40:42.503Z,-2.50
2022-08-28T06:45:48.588Z,117.57
2022-08-28T06:50:53.361Z,116.26
2022-08-28T06:55:59.019Z,117.23
2022-08-28T07:01:06.159Z,117.41
2022-08-28T07:06:10.901Z,113.26
2022-08-28T07:11:16.264Z,115.80
2022-08-28T07:16:22.975Z,111.27
2022-08-28T07:21:26.646Z,112.93
2022-08-28T07:26:29.861Z,108.73
2022-08-28T07:31:38.613Z,107.68
2022-08-28T07:36:42.048Z,109.02
2022-08-28T07:41:47.054Z,104.65
2022-08-28T07:46:54.005Z,106.91
2022-08-28T07:51:57.236Z,102.84
2022-08-28T07:57:00.310Z,106.00
2022-08-28T08:02:05.927Z,102.21
2022-08-28T08:07:10.453Z,105.94
2022-08-28T08:12:15.305Z,104.75
2022-08-28T08:17:19.860Z,100.37
2022-08-28T08:22:23.705Z,101.95
2022-08-28T08:27:27.685Z,99.47
2022-08-28T08:32:32.110Z,100.40
2022-08-28T08:37:35.094Z,98.54
2022-08-28T08:42:38.923Z,95.46
2022-08-28T08:47:48.897Z,93.72
2022-08-28T08:53:08.462Z,92.43
2022-08-28T08:58:17.658Z,89.79
2022-08-28T09:03:25.510Z,90.04
2022-08-28T09:08:36.877Z,90.35
2022-08-28T09:13:50.017Z,87.79
2022-08-28T09:18:57.184Z,90.63
2022-08-28T09:24:05.472Z,89.02
2022-08-28T09:29:17.672Z,89.66
2022-08-28T09:34:26.774Z,87.43
2022-08-28T09:39:32.369Z,88.82
2022-08-28T09:45:09.073Z,86.95
2022-08-28T09:50:29.757Z,86.52
2022-08-28T09:55:43.547Z,83.49
2022-08-28T10:00:53.025Z,79.81
2022-08-28T10:06:07.960Z,81.57
2022-08-28T10:11:21.324Z,82.75
2022-08-28T10:16:33.071Z,75.83
2022-08-28T10:21:41.444Z,81.18
2022-08-28T10:26:52.308Z,76.91
2022-08-28T10:32:16.481Z,76.24
2022-08-28T10:37:37.809Z,80.40
2022-08-28T10:42:46.889Z,80.09
2022-08-28T10:47:53.062Z,82.68
2022-08-28T10:53:02.415Z,79.91
2022-08-28T10:58:24.165Z,82.18
2022-08-28T11:03:34.793Z,82.53
2022-08-28T11:08:40.569Z,79.69
2022-08-28T11:13:56.271Z,79.53
2022-08-28T11:19:20.616Z,80.27
2022-08-28T11:24:36.127Z,77.04
2022-08-28T11:30:27.008Z,75.92
2022-08-28T11:35:51.993Z,74.48
2022-08-28T11:41:09.864Z,77.39
2022-08-28T11:46:26.067Z,74.97
2022-08-28T11:51:47.453Z,76.44
2022-08-28T11:57:02.722Z,73.38
2022-08-28T12:02:47.044Z,69.05
2022-08-28T12:07:52.088Z,69.23
2022-08-28T12:12:59.138Z,72.42
2022-08-28T12:18:03.521Z,71.49
2022-08-28T12:23:33.532Z,71.18
2022-08-28T12:28:46.079Z,73.15
2022-08-28T12:33:55.496Z,73.16
2022-08-28T12:38:58.791Z,70.44
2022-08-28T12:44:05.199Z,74.48
2022-08-28T12:49:27.721Z,71.16
2022-08-28T12:54:30.602Z,69.36
2022-08-28T12:59:38.070Z,67.93
2022-08-28T13:04:54.767Z,69.90
2022-08-28T13:10:01.790Z,69.42
2022-08-28T13:15:08.640Z,70.89
2022-08-28T13:20:12.313Z,67.70
2022-08-28T13:25:21.875Z,68.87
2022-08-28T13:30:28.703Z,69.90
2022-08-28T13:35:39.170Z,68.94
2022-08-28T13:41:03.404Z,63.58
2022-08-28T13:46:08.084Z,67.22
2022-08-28T13:51:20.672Z,66.85
2022-08-28T13:56:24.046Z,67.28
2022-08-28T14:01:48.709Z,65.36
2022-08-28T14:06:52.009Z,70.35
2022-08-28T14:11:58.236Z,69.45
2022-08-28T14:17:02.847Z,70.47
2022-08-28T14:22:05.909Z,65.82
2022-08-28T14:27:09.359Z,68.99
2022-08-28T14:32:14.124Z,66.01
2022-08-28T14:37:18.312Z,67.58
2022-08-28T14:42:21.183Z,68.36
2022-08-28T14:47:25.647Z,68.62
2022-08-28T14:52:28.505Z,68.40
2022-08-28T14:57:31.332Z,69.84
2022-08-28T15:02:36.122Z,68.98
2022-08-28T15:07:39.185Z,67.81
2022-08-28T15:12:42.597Z,69.19
2022-08-28T15:17:46.893Z,71.61
2022-08-28T15:22:49.869Z,71.61
2022-08-28T15:27:52.752Z,72.25
2022-08-28T15:32:58.219Z,75.42
2022-08-28T15:38:01.230Z,73.44
2022-08-28T15:43:04.350Z,74.87
2022-08-28T15:48:09.770Z,75.25
2022-08-28T15:53:13.046Z,76.15
2022-08-28T15:58:16.030Z,77.24
2022-08-28T16:03:21.627Z,78.37
2022-08-28T16:08:25.468Z,81.07
2022-08-28T16:13:28.796Z,81.29
2022-08-28T16:18:33.677Z,82.86
2022-08-28T16:23:38.993Z,87.37
2022-08-28T16:28:42.725Z,89.90
2022-08-28T16:33:47.601Z,91.85
2022-08-28T16:38:59.699Z,92.05
2022-08-28T16:44:07.344Z,92.95
2022-08-28T16:49:12.152Z,94.62
2022-08-28T16:54:18.889Z,94.49
2022-08-28T16:59:23.422Z,95.78
2022-08-28T17:04:31.698Z,95.94
2022-08-28T17:09:34.660Z,96.39
2022-08-28T17:14:38.108Z,96.65
2022-08-28T17:19:45.825Z,97.09
2022-08-28T17:24:52.798Z,9.48
2022-08-28T17:29:57.150Z,12.87
2022-08-28T17:35:02.400Z,17.06
2022-08-28T17:40:09.760Z,16.49
2022-08-28T17:45:13.133Z,16.17
2022-08-28T17:50:17.411Z,14.88
2022-08-28T17:55:21.660Z,15.09
2022-08-28T18:00:25.216Z,14.08
2022-08-28T18:05:29.681Z,12.84
2022-08-28T18:10:34.909Z,12.50
2022-08-28T18:15:38.059Z,12.14
2022-08-28T18:20:43.486Z,11.72
2022-08-28T18:25:50.834Z,12.71
2022-08-28T18:30:54.863Z,12.02
2022-08-28T18:36:09.605Z,11.03
2022-08-28T18:41:13.541Z,10.59
2022-08-28T18:46:18.494Z,11.04
2022-08-28T18:51:23.465Z,11.27
2022-08-28T18:56:27.480Z,11.96
2022-08-28T19:01:34.116Z,11.89
2022-08-28T19:06:38.462Z,11.88
2022-08-28T19:11:41.674Z,11.89
2022-08-28T19:16:44.835Z,11.56
2022-08-28T19:21:49.773Z,10.85
2022-08-28T19:26:52.596Z,9.13
2022-08-28T19:31:56.231Z,9.36
2022-08-28T19:37:00.956Z,8.49
2022-08-28T19:42:03.994Z,8.27
2022-08-28T19:47:07.507Z,7.95
2022-08-28T19:52:12.082Z,7.79
2022-08-28T19:57:15.471Z,7.34
2022-08-28T20:02:23.434Z,7.37
2022-08-28T20:07:30.506Z,7.33
2022-08-28T20:12:33.891Z,7.63
2022-08-28T20:17:43.846Z,7.55
2022-08-28T20:22:53.939Z,7.84
2022-08-28T20:28:01.526Z,7.71
2022-08-28T20:33:05.090Z,7.75
2022-08-28T20:38:11.321Z,7.95
2022-08-28T20:43:14.334Z,7.99
2022-08-28T20:48:17.619Z,7.66
2022-08-28T20:53:36.915Z,8.80
2022-08-28T20:58:40.811Z,9.95
2022-08-28T21:03:50.581Z,10.62
2022-08-28T21:09:09.036Z,10.62
2022-08-28T21:14:23.178Z,9.98
2022-08-28T21:19:30.267Z,10.17
2022-08-28T21:24:35.655Z,11.23
2022-08-28T21:29:38.540Z,11.65
2022-08-28T21:34:41.627Z,10.36
2022-08-28T21:39:46.372Z,10.22
2022-08-28T21:44:51.986Z,10.79
2022-08-28T21:49:56.592Z,10.95
2022-08-28T21:55:03.958Z,10.85
2022-08-28T22:00:09.583Z,10.74
2022-08-28T22:05:13.247Z,10.84
2022-08-28T22:10:18.034Z,10.95
2022-08-28T22:15:21.763Z,11.07
2022-08-28T22:20:25.014Z,11.44
2022-08-28T22:25:29.337Z,11.03
2022-08-28T22:30:33.782Z,10.88
2022-08-28T22:35:38.039Z,9.95
2022-08-28T22:40:43.070Z,9.27
2022-08-28T22:45:47.405Z,9.29
2022-08-28T22:50:51.119Z,8.07
2022-08-28T22:55:56.265Z,9.54
2022-08-28T23:01:01.985Z,9.27
2022-08-28T23:06:05.117Z,9.63
2022-08-28T23:11:09.868Z,10.23
2022-08-28T23:16:13.444Z,9.11
2022-08-28T23:21:16.408Z,10.11
2022-08-28T23:26:23.986Z,10.30
2022-08-28T23:31:27.251Z,10.46
2022-08-28T23:36:30.172Z,10.61
2022-08-28T23:41:34.657Z,11.06
2022-08-28T23:46:41.202Z,10.62
2022-08-28T23:51:44.953Z,10.61
2022-08-28T23:56:51.141Z,10.84
